createdAt,value
2022-11-01T00:00:18.382Z,15.32
2022-11-01T00:02:20.598Z,15.33
2022-11-01T00:04:22.753Z,15.34
2022-11-01T00:06:24.926Z,15.32
2022-11-01T00:08:27.190Z,15.22
2022-11-01T00:10:29.700Z,15.25
2022-11-01T00:12:32.177Z,15.24
2022-11-01T00:14:34.305Z,15.30
2022-11-01T00:16:36.571Z,15.39
2022-11-01T00:18:38.638Z,15.43
2022-11-01T00:20:40.617Z,15.48
2022-11-01T00:22:42.582Z,15.50
2022-11-01T00:24:44.581Z,15.49
2022-11-01T00:26:46.633Z,15.46
2022-11-01T00:28:49.685Z,15.47
2022-11-01T00:30:56.359Z,15.49
2022-11-01T00:32:58.526Z,15.48
2022-11-01T00:35:00.467Z,15.46
2022-11-01T00:37:02.565Z,15.45
2022-11-01T00:39:05.548Z,15.44
2022-11-01T00:41:07.917Z,15.43
2022-11-01T00:43:11.592Z,15.41
2022-11-01T00:45:13.490Z,15.48
2022-11-01T00:47:15.552Z,15.43
2022-11-01T00:49:17.567Z,15.50
2022-11-01T00:51:20.188Z,15.50
2022-11-01T00:53:22.655Z,15.50
2022-11-01T00:55:24.523Z,15.48
2022-11-01T00:57:26.671Z,15.50
2022-11-01T00:59:28.759Z,15.51
2022-11-01T01:01:32.596Z,15.52
2022-11-01T01:03:34.955Z,15.51
2022-11-01T01:05:37.570Z,15.50
2022-11-01T01:07:39.801Z,15.48
2022-11-01T01:09:42.034Z,15.45
2022-11-01T01:11:44.021Z,15.44
2022-11-01T01:13:45.933Z,15.42
2022-11-01T01:15:48.175Z,15.41
2022-11-01T01:17:50.789Z,15.30
2022-11-01T01:19:52.871Z,15.24
2022-11-01T01:21:54.761Z,15.13
2022-11-01T01:23:56.777Z,15.12
2022-11-01T01:25:58.760Z,15.18
2022-11-01T01:28:01.235Z,15.24
2022-11-01T01:30:10.376Z,15.21
2022-11-01T01:32:18.799Z,15.15
2022-11-01T01:34:24.073Z,15.09
2022-11-01T01:36:26.128Z,15.03
2022-11-01T01:38:28.218Z,15.01
2022-11-01T01:40:30.622Z,15.02
2022-11-01T01:42:44.084Z,15.03
2022-11-01T01:44:52.124Z,14.98
2022-11-01T01:46:54.275Z,14.92
2022-11-01T01:48:59.820Z,14.89
2022-11-01T01:51:05.978Z,14.81
2022-11-01T01:53:34.339Z,14.73
2022-11-01T01:55:49.115Z,14.68
2022-11-01T01:57:53.102Z,14.67
2022-11-01T01:59:55.079Z,14.59
2022-11-01T02:01:59.302Z,14.63
2022-11-01T02:04:03.880Z,14.64
2022-11-01T02:06:21.227Z,14.56
2022-11-01T02:08:29.567Z,14.58
2022-11-01T02:10:35.990Z,14.54
2022-11-01T02:12:37.921Z,14.67
2022-11-01T02:14:42.494Z,14.66
2022-11-01T02:17:02.535Z,14.61
2022-11-01T02:19:38.324Z,14.65
2022-11-01T02:21:46.164Z,14.69
2022-11-01T02:24:31.491Z,14.67
2022-11-01T02:27:03.285Z,14.63
2022-11-01T02:29:14.755Z,14.66
2022-11-01T02:31:42.133Z,14.46
2022-11-01T02:34:13.285Z,14.53
2022-11-01T02:36:31.660Z,14.44
2022-11-01T02:38:44.387Z,14.45
2022-11-01T02:41:08.576Z,14.47
2022-11-01T02:43:21.620Z,14.47
2022-11-01T02:45:31.771Z,14.47
2022-11-01T02:47:34.677Z,14.46
2022-11-01T02:49:48.349Z,14.43
2022-11-01T02:51:51.572Z,14.46
2022-11-01T02:53:53.573Z,14.46
2022-11-01T02:55:55.533Z,14.46
2022-11-01T02:58:20.277Z,14.46
2022-11-01T03:00:29.097Z,14.39
2022-11-01T03:02:44.788Z,14.36
2022-11-01T03:04:48.249Z,14.44
2022-11-01T03:06:56.074Z,14.37
2022-11-01T03:09:02.636Z,14.30
2022-11-01T03:11:15.953Z,14.29
2022-11-01T03:13:29.363Z,14.31
2022-11-01T03:15:42.905Z,14.26
2022-11-01T03:17:53.363Z,14.36
2022-11-01T03:20:07.046Z,14.42
2022-11-01T03:22:21.532Z,14.40
2022-11-01T03:24:36.311Z,14.35
2022-11-01T03:26:39.879Z,14.38
2022-11-01T03:28:46.495Z,14.34
2022-11-01T03:30:57.348Z,14.42
2022-11-01T03:32:59.561Z,14.41
2022-11-01T03:35:04.591Z,14.28
2022-11-01T03:37:11.783Z,14.26
2022-11-01T03:39:25.249Z,14.30
2022-11-01T03:41:30.306Z,14.32
2022-11-01T03:43:35.648Z,14.34
2022-11-01T03:45:40.523Z,14.38
2022-11-01T03:47:43.319Z,14.36
2022-11-01T03:49:45.585Z,14.40
2022-11-01T03:52:37.476Z,14.33
2022-11-01T03:54:39.588Z,14.36
2022-11-01T03:56:42.071Z,14.38
2022-11-01T03:58:45.279Z,14.28
2022-11-01T04:00:47.349Z,14.31
2022-11-01T04:02:51.072Z,14.24
2022-11-01T04:04:52.961Z,14.15
2022-11-01T04:06:54.942Z,14.19
2022-11-01T04:08:57.419Z,14.20
2022-11-01T04:10:59.887Z,14.32
2022-11-01T04:13:02.414Z,14.36
2022-11-01T04:15:23.925Z,14.34
2022-11-01T04:17:44.472Z,14.22
2022-11-01T04:20:04.976Z,14.12
2022-11-01T04:22:07.131Z,14.21
2022-11-01T04:24:09.651Z,14.12
2022-11-01T04:26:18.108Z,13.98
2022-11-01T04:28:20.535Z,14.00
2022-11-01T04:30:27.303Z,13.99
2022-11-01T04:32:31.877Z,14.06
2022-11-01T04:34:43.504Z,14.00
2022-11-01T04:36:45.450Z,13.87
2022-11-01T04:38:52.661Z,13.85
2022-11-01T04:40:56.831Z,13.84
2022-11-01T04:42:59.558Z,13.84
2022-11-01T04:45:02.688Z,13.75
2022-11-01T04:47:04.851Z,13.72
2022-11-01T04:49:06.847Z,13.73
2022-11-01T04:51:35.121Z,13.59
2022-11-01T04:53:37.777Z,13.58
2022-11-01T04:55:40.103Z,13.53
2022-11-01T04:57:43.289Z,13.48
2022-11-01T04:59:45.664Z,13.47
2022-11-01T05:01:47.727Z,13.43
2022-11-01T05:03:50.130Z,13.38
2022-11-01T05:05:52.253Z,13.33
2022-11-01T05:08:08.611Z,13.21
2022-11-01T05:10:10.994Z,13.24
2022-11-01T05:16:19.052Z,13.15
2022-11-01T05:18:21.950Z,13.17
2022-11-01T05:20:24.501Z,13.14
2022-11-01T05:22:26.654Z,13.17
2022-11-01T05:24:28.738Z,13.08
2022-11-01T05:26:33.861Z,13.02
2022-11-01T05:28:35.848Z,13.09
2022-11-01T05:30:38.479Z,13.04
2022-11-01T05:32:40.686Z,13.02
2022-11-01T05:34:46.033Z,13.00
2022-11-01T05:36:51.159Z,12.96
2022-11-01T05:39:00.097Z,12.90
2022-11-01T05:41:03.861Z,13.01
2022-11-01T05:43:05.963Z,12.94
2022-11-01T05:45:10.175Z,12.91
2022-11-01T05:47:17.205Z,12.96
2022-11-01T05:49:20.171Z,13.04
2022-11-01T05:51:22.957Z,12.99
2022-11-01T05:53:25.021Z,12.97
2022-11-01T05:55:26.842Z,12.99
2022-11-01T05:57:33.117Z,13.14
2022-11-01T05:59:35.218Z,13.10
2022-11-01T06:01:37.105Z,13.13
2022-11-01T06:03:39.159Z,13.25
2022-11-01T06:06:19.449Z,13.33
2022-11-01T06:08:21.475Z,13.39
2022-11-01T06:10:23.608Z,13.43
2022-11-01T06:12:25.774Z,13.50
2022-11-01T06:14:27.615Z,13.62
2022-11-01T06:16:29.634Z,13.72
2022-11-01T06:18:31.826Z,13.80
2022-11-01T06:20:34.844Z,13.88
2022-11-01T06:22:36.965Z,13.92
2022-11-01T06:24:38.884Z,13.99
2022-11-01T06:26:40.647Z,14.03
2022-11-01T06:28:42.822Z,14.13
2022-11-01T06:30:44.608Z,14.15
2022-11-01T06:32:46.766Z,14.25
2022-11-01T06:34:48.618Z,14.30
2022-11-01T06:36:50.608Z,14.33
2022-11-01T06:38:52.713Z,14.44
2022-11-01T06:40:54.581Z,14.52
2022-11-01T06:43:05.660Z,14.52
2022-11-01T06:45:07.953Z,14.60
2022-11-01T06:47:12.709Z,14.63
2022-11-01T06:49:17.996Z,14.66
2022-11-01T06:51:21.271Z,14.75
2022-11-01T06:53:26.084Z,14.77
2022-11-01T06:55:29.488Z,14.84
2022-11-01T06:57:31.394Z,14.84
2022-11-01T06:59:33.323Z,14.86
2022-11-01T07:01:35.225Z,14.87
2022-11-01T07:03:37.197Z,14.84
2022-11-01T07:05:40.446Z,15.02
2022-11-01T07:07:42.538Z,15.13
2022-11-01T07:09:47.685Z,15.15
2022-11-01T07:11:49.406Z,15.30
2022-11-01T07:13:51.281Z,15.33
2022-11-01T07:15:53.132Z,15.37
2022-11-01T07:17:58.832Z,15.45
2022-11-01T07:20:00.765Z,15.38
2022-11-01T07:22:02.958Z,15.45
2022-11-01T07:24:05.442Z,15.55
2022-11-01T07:26:07.302Z,15.53
2022-11-01T07:28:09.736Z,15.63
2022-11-01T07:30:12.263Z,15.74
2022-11-01T07:32:14.135Z,15.87
2022-11-01T07:34:16.079Z,15.92
2022-11-01T07:36:18.283Z,16.01
2022-11-01T07:38:20.389Z,16.12
2022-11-01T07:40:27.654Z,16.10
2022-11-01T07:42:29.917Z,16.13
2022-11-01T07:44:31.822Z,16.09
2022-11-01T07:46:33.691Z,16.15
2022-11-01T07:48:37.061Z,16.17
2022-11-01T07:50:40.746Z,16.25
2022-11-01T07:52:43.153Z,16.31
2022-11-01T07:54:45.022Z,16.36
2022-11-01T07:56:48.024Z,16.40
2022-11-01T07:58:49.888Z,16.43
2022-11-01T08:00:51.726Z,16.51
2022-11-01T08:03:01.217Z,16.51
2022-11-01T08:05:03.597Z,16.61
2022-11-01T08:07:05.460Z,16.63
2022-11-01T08:09:07.408Z,16.71
2022-11-01T08:11:09.289Z,16.77
2022-11-01T08:13:25.026Z,16.77
2022-11-01T08:15:26.850Z,16.92
2022-11-01T08:17:33.490Z,16.98
2022-11-01T08:19:35.202Z,17.06
2022-11-01T08:21:37.172Z,17.15
2022-11-01T08:23:39.154Z,17.19
2022-11-01T08:25:41.187Z,17.27
2022-11-01T08:27:45.436Z,17.34
2022-11-01T08:29:47.457Z,17.41
2022-11-01T08:31:49.509Z,17.46
2022-11-01T08:33:51.538Z,17.52
2022-11-01T08:35:53.968Z,17.56
2022-11-01T08:37:56.384Z,17.61
2022-11-01T08:39:58.351Z,17.64
2022-11-01T08:42:00.845Z,17.66
2022-11-01T08:44:02.917Z,17.74
2022-11-01T08:46:05.019Z,17.80
2022-11-01T08:48:07.402Z,17.83
2022-11-01T08:50:11.942Z,17.90
2022-11-01T08:52:14.108Z,17.90
2022-11-01T08:54:16.128Z,17.95
2022-11-01T08:56:20.745Z,18.02
2022-11-01T08:58:22.862Z,18.04
2022-11-01T09:00:24.823Z,18.08
2022-11-01T09:02:27.192Z,18.15
2022-11-01T09:04:29.821Z,18.16
2022-11-01T09:06:36.197Z,18.17
2022-11-01T09:08:38.803Z,18.23
2022-11-01T09:10:40.747Z,18.31
2022-11-01T09:12:43.686Z,18.33
2022-11-01T09:14:45.818Z,18.46
2022-11-01T09:16:47.903Z,18.49
2022-11-01T09:18:50.203Z,18.57
2022-11-01T09:20:55.975Z,18.67
2022-11-01T09:22:57.902Z,18.78
2022-11-01T09:25:00.093Z,18.85
2022-11-01T09:27:02.586Z,18.89
2022-11-01T09:29:04.958Z,18.91
2022-11-01T09:31:22.490Z,18.96
2022-11-01T09:33:25.253Z,19.03
2022-11-01T09:35:27.421Z,19.07
2022-11-01T09:37:29.367Z,19.14
2022-11-01T09:39:31.321Z,19.19
2022-11-01T09:41:39.203Z,19.28
2022-11-01T09:43:44.445Z,19.33
2022-11-01T09:45:48.773Z,19.39
2022-11-01T09:47:54.838Z,19.42
2022-11-01T09:50:38.677Z,19.45
2022-11-01T09:52:41.323Z,19.53
2022-11-01T09:54:43.722Z,19.58
2022-11-01T09:57:07.520Z,19.62
2022-11-01T09:59:38.838Z,19.67
2022-11-01T10:01:55.798Z,19.71
2022-11-01T10:04:04.122Z,19.73
2022-11-01T10:06:44.305Z,19.77
2022-11-01T10:08:46.452Z,19.88
2022-11-01T10:11:04.279Z,19.87
2022-11-01T10:13:24.528Z,19.92
2022-11-01T10:15:41.961Z,20.02
2022-11-01T10:17:52.458Z,20.07
2022-11-01T10:22:32.566Z,20.11
2022-11-01T10:24:49.308Z,20.19
2022-11-01T10:26:56.182Z,20.20
2022-11-01T10:29:16.673Z,20.28
2022-11-01T10:31:23.177Z,20.30
2022-11-01T10:33:30.760Z,20.35
2022-11-01T10:35:38.487Z,20.34
2022-11-01T10:37:57.460Z,20.44
2022-11-01T10:40:18.800Z,20.43
2022-11-01T10:42:20.863Z,20.52
2022-11-01T10:44:38.574Z,20.57
2022-11-01T10:46:45.671Z,20.64
2022-11-01T10:49:01.628Z,20.63
2022-11-01T10:51:06.554Z,20.74
2022-11-01T10:53:12.847Z,20.77
2022-11-01T10:58:57.172Z,20.81
2022-11-01T11:01:06.257Z,20.91
2022-11-01T11:03:15.700Z,20.93
2022-11-01T11:05:19.199Z,21.02
2022-11-01T11:07:24.215Z,21.04
2022-11-01T11:09:34.748Z,21.06
2022-11-01T11:11:44.497Z,21.08
2022-11-01T11:13:53.967Z,21.13
2022-11-01T11:16:02.519Z,21.17
2022-11-01T11:18:17.544Z,21.25
2022-11-01T11:20:30.563Z,21.23
2022-11-01T11:22:37.625Z,21.23
2022-11-01T11:24:44.471Z,21.29
2022-11-01T11:26:53.194Z,21.29
2022-11-01T11:28:57.484Z,21.35
2022-11-01T11:31:18.763Z,21.39
2022-11-01T11:33:22.137Z,21.44
2022-11-01T11:35:27.767Z,21.45
2022-11-01T11:37:33.581Z,21.48
2022-11-01T11:39:37.925Z,21.49
2022-11-01T11:41:42.986Z,21.53
2022-11-01T11:43:45.457Z,21.56
2022-11-01T11:46:03.358Z,21.52
2022-11-01T11:48:20.634Z,21.52
2022-11-01T11:50:32.478Z,21.58
2022-11-01T11:52:38.519Z,21.63
2022-11-01T11:54:42.257Z,21.71
2022-11-01T11:56:46.125Z,21.77
2022-11-01T11:58:48.831Z,21.79
2022-11-01T12:00:55.128Z,21.81
2022-11-01T12:03:00.627Z,21.86
2022-11-01T12:05:09.047Z,21.84
2022-11-01T12:07:28.249Z,21.83
2022-11-01T12:09:48.277Z,21.87
2022-11-01T12:11:50.656Z,21.90
2022-11-01T12:14:06.456Z,21.84
2022-11-01T12:16:17.827Z,21.90
2022-11-01T12:18:20.110Z,21.94
2022-11-01T12:20:26.960Z,21.98
2022-11-01T12:22:33.204Z,22.01
2022-11-01T12:24:48.483Z,22.00
2022-11-01T12:26:54.185Z,22.02
2022-11-01T12:29:03.369Z,22.01
2022-11-01T12:31:19.620Z,22.03
2022-11-01T12:33:28.206Z,22.02
2022-11-01T12:35:35.236Z,22.03
2022-11-01T12:37:52.021Z,21.98
2022-11-01T12:40:26.525Z,21.91
2022-11-01T12:42:32.978Z,22.00
2022-11-01T12:44:48.561Z,21.98
2022-11-01T12:47:00.382Z,21.98
2022-11-01T12:49:34.662Z,21.99
2022-11-01T12:51:42.606Z,22.03
2022-11-01T12:54:02.251Z,22.00
2022-11-01T12:56:04.518Z,22.03
2022-11-01T12:58:13.356Z,22.01
2022-11-01T13:00:20.362Z,22.01
2022-11-01T13:02:48.169Z,21.93
2022-11-01T13:05:00.384Z,21.99
2022-11-01T13:07:21.541Z,21.99
2022-11-01T13:09:38.553Z,22.02
2022-11-01T13:12:05.308Z,22.00
2022-11-01T13:14:19.275Z,21.99
2022-11-01T13:16:34.604Z,21.98
2022-11-01T13:18:58.386Z,21.96
2022-11-01T13:21:03.358Z,21.96
2022-11-01T13:23:24.297Z,21.91
2022-11-01T13:25:36.364Z,21.92
2022-11-01T13:27:48.910Z,21.92
2022-11-01T13:30:03.545Z,21.86
2022-11-01T13:32:18.405Z,21.91
2022-11-01T13:34:48.089Z,21.78
2022-11-01T13:37:19.071Z,21.82
2022-11-01T13:39:38.216Z,21.77
2022-11-01T13:41:48.926Z,21.79
2022-11-01T13:43:58.239Z,21.74
2022-11-01T13:46:24.358Z,21.70
2022-11-01T13:48:54.261Z,21.67
2022-11-01T13:51:16.308Z,21.63
2022-11-01T13:53:46.079Z,21.60
2022-11-01T13:55:58.139Z,21.58
2022-11-01T13:58:01.065Z,21.58
2022-11-01T14:00:09.768Z,21.54
2022-11-01T14:02:55.347Z,21.43
2022-11-01T14:05:03.180Z,21.51
2022-11-01T14:07:15.208Z,21.42
2022-11-01T14:09:26.787Z,21.35
2022-11-01T14:12:07.835Z,21.37
2022-11-01T14:14:31.797Z,21.33
2022-11-01T14:16:33.838Z,21.37
2022-11-01T14:19:16.053Z,21.25
2022-11-01T14:21:27.566Z,21.27
2022-11-01T14:23:29.893Z,21.25
2022-11-01T14:25:32.958Z,21.20
2022-11-01T14:27:36.974Z,21.15
2022-11-01T14:29:39.240Z,21.14
2022-11-01T14:31:45.923Z,21.06
2022-11-01T14:33:48.670Z,21.06
2022-11-01T14:35:57.257Z,21.00
2022-11-01T14:38:14.763Z,20.88
2022-11-01T14:40:26.079Z,20.88
2022-11-01T14:42:41.849Z,20.86
2022-11-01T14:44:50.529Z,20.85
2022-11-01T14:46:56.578Z,20.80
2022-11-01T14:49:28.004Z,20.76
2022-11-01T14:51:32.181Z,20.77
2022-11-01T14:53:38.261Z,20.70
2022-11-01T14:55:40.345Z,20.66
2022-11-01T14:57:43.241Z,20.64
2022-11-01T14:59:45.206Z,20.60
2022-11-01T15:01:50.404Z,20.58
2022-11-01T15:04:01.157Z,20.49
2022-11-01T15:06:04.943Z,20.47
2022-11-01T15:08:31.047Z,20.33
2022-11-01T15:10:41.757Z,20.28
2022-11-01T15:12:54.128Z,20.29
2022-11-01T15:14:58.413Z,20.22
2022-11-01T15:17:00.957Z,20.19
2022-11-01T15:19:15.180Z,20.14
2022-11-01T15:22:07.087Z,19.99
2022-11-01T15:24:20.468Z,19.95
2022-11-01T15:26:27.224Z,19.92
2022-11-01T15:28:51.552Z,19.82
2022-11-01T15:31:00.043Z,19.79
2022-11-01T15:33:30.997Z,19.72
2022-11-01T15:35:33.556Z,19.68
2022-11-01T15:37:37.053Z,19.61
2022-11-01T15:39:39.389Z,19.59
2022-11-01T15:41:42.044Z,19.47
2022-11-01T15:43:51.482Z,19.40
2022-11-01T15:46:01.729Z,19.32
2022-11-01T15:48:10.135Z,19.27
2022-11-01T15:50:13.127Z,19.28
2022-11-01T15:52:19.651Z,19.17
2022-11-01T15:54:31.856Z,19.12
2022-11-01T15:56:54.547Z,19.00
2022-11-01T15:59:00.557Z,19.01
2022-11-01T16:01:20.607Z,18.95
2022-11-01T16:03:29.322Z,18.93
2022-11-01T16:06:01.354Z,18.86
2022-11-01T16:08:07.515Z,18.85
2022-11-01T16:10:30.063Z,18.76
2022-11-01T16:12:36.581Z,18.76
2022-11-01T16:14:38.558Z,18.76
2022-11-01T16:17:06.642Z,18.65
2022-11-01T16:19:27.787Z,18.59
2022-11-01T16:21:30.854Z,18.61
2022-11-01T16:23:32.955Z,18.59
2022-11-01T16:25:39.583Z,18.54
2022-11-01T16:28:02.382Z,18.42
2022-11-01T16:30:10.372Z,18.44
2022-11-01T16:32:27.346Z,18.21
2022-11-01T16:34:29.318Z,18.09
2022-11-01T16:36:31.284Z,18.09
2022-11-01T16:38:33.388Z,18.09
2022-11-01T16:40:35.542Z,17.95
2022-11-01T16:42:37.720Z,17.90
2022-11-01T16:44:40.594Z,17.86
2022-11-01T16:46:42.727Z,17.75
2022-11-01T16:48:56.419Z,17.72
2022-11-01T16:51:00.338Z,17.74
2022-11-01T16:53:02.510Z,17.59
2022-11-01T16:55:04.894Z,17.50
2022-11-01T16:57:18.552Z,17.37
2022-11-01T16:59:27.681Z,17.44
2022-11-01T17:01:35.059Z,17.53
2022-11-01T17:03:38.053Z,17.56
2022-11-01T17:09:16.553Z,17.54
2022-11-01T17:11:18.790Z,17.53
2022-11-01T17:13:20.708Z,17.55
2022-11-01T17:15:23.193Z,17.55
2022-11-01T17:17:27.591Z,17.52
2022-11-01T17:19:33.226Z,17.49
2022-11-01T17:21:39.562Z,17.47
2022-11-01T17:23:41.756Z,17.44
2022-11-01T17:25:47.519Z,17.26
2022-11-01T17:27:51.887Z,17.24
2022-11-01T17:29:53.997Z,17.22
2022-11-01T17:31:56.134Z,17.23
2022-11-01T17:34:00.825Z,17.15
2022-11-01T17:36:03.145Z,17.23
2022-11-01T17:38:09.585Z,17.27
2022-11-01T17:40:25.365Z,17.24
2022-11-01T17:42:27.774Z,17.28
2022-11-01T17:44:32.593Z,17.28
2022-11-01T17:46:34.705Z,17.28
2022-11-01T17:48:39.399Z,17.27
2022-11-01T17:50:42.445Z,17.25
2022-11-01T17:52:44.584Z,17.22
2022-11-01T17:54:46.896Z,17.23
2022-11-01T17:56:51.437Z,17.23
2022-11-01T17:58:53.977Z,17.22
2022-11-01T18:00:56.100Z,17.19
2022-11-01T18:02:58.868Z,17.17
2022-11-01T18:05:00.786Z,17.15
2022-11-01T18:07:06.528Z,17.12
2022-11-01T18:09:23.645Z,17.06
2022-11-01T18:11:40.009Z,17.03
2022-11-01T18:14:11.404Z,16.98
2022-11-01T18:16:29.657Z,16.93
2022-11-01T18:18:32.021Z,16.88
2022-11-01T18:20:50.092Z,16.88
2022-11-01T18:23:00.782Z,16.84
2022-11-01T18:25:25.423Z,16.84
2022-11-01T18:27:35.882Z,16.84
2022-11-01T18:29:41.564Z,16.86
2022-11-01T18:31:48.885Z,16.87
2022-11-01T18:34:20.703Z,16.78
2022-11-01T18:36:33.591Z,16.79
2022-11-01T18:38:56.382Z,16.81
2022-11-01T18:41:00.657Z,16.80
2022-11-01T18:43:05.177Z,16.81
2022-11-01T18:45:26.851Z,16.70
2022-11-01T18:47:35.011Z,16.72
2022-11-01T18:49:39.580Z,16.72
2022-11-01T18:51:41.600Z,16.65
2022-11-01T18:53:43.842Z,16.61
2022-11-01T18:56:14.182Z,16.49
2022-11-01T18:58:31.272Z,16.51
2022-11-01T19:00:33.621Z,16.51
2022-11-01T19:02:36.195Z,16.47
2022-11-01T19:04:41.250Z,16.45
2022-11-01T19:06:44.760Z,16.43
2022-11-01T19:08:58.636Z,16.32
2022-11-01T19:11:01.615Z,16.35
2022-11-01T19:13:12.899Z,16.30
2022-11-01T19:15:28.415Z,16.24
2022-11-01T19:17:37.529Z,16.23
2022-11-01T19:19:42.311Z,16.22
2022-11-01T19:21:44.324Z,16.22
2022-11-01T19:24:28.163Z,16.11
2022-11-01T19:26:39.262Z,16.11
2022-11-01T19:28:41.252Z,16.13
2022-11-01T19:30:49.207Z,16.07
2022-11-01T19:32:54.187Z,16.04
2022-11-01T19:34:56.284Z,16.03
2022-11-01T19:37:00.497Z,16.00
2022-11-01T19:39:28.034Z,15.91
2022-11-01T19:41:33.693Z,15.95
2022-11-01T19:43:35.858Z,15.88
2022-11-01T19:45:49.663Z,15.84
2022-11-01T19:47:51.668Z,15.88
2022-11-01T19:49:53.760Z,15.86
2022-11-01T19:52:09.855Z,15.78
2022-11-01T19:54:12.666Z,15.80
2022-11-01T19:56:21.629Z,15.74
2022-11-01T19:58:30.153Z,15.72
2022-11-01T20:00:36.381Z,15.73
2022-11-01T20:02:39.134Z,15.66
2022-11-01T20:04:41.870Z,15.65
2022-11-01T20:06:50.729Z,15.56
2022-11-01T20:08:55.726Z,15.57
2022-11-01T20:10:57.665Z,15.57
2022-11-01T20:12:59.675Z,15.54
2022-11-01T20:15:05.264Z,15.48
2022-11-01T20:17:07.386Z,15.47
2022-11-01T20:19:13.171Z,15.45
2022-11-01T20:21:18.925Z,15.43
2022-11-01T20:23:26.200Z,15.41
2022-11-01T20:25:31.023Z,15.40
2022-11-01T20:27:33.328Z,15.39
2022-11-01T20:29:35.515Z,15.39
2022-11-01T20:31:39.959Z,15.35
2022-11-01T20:33:42.405Z,15.34
2022-11-01T20:35:44.691Z,15.30
2022-11-01T20:38:24.385Z,15.30
2022-11-01T20:40:26.810Z,15.29
2022-11-01T20:42:29.286Z,15.25
2022-11-01T20:44:34.626Z,15.19
2022-11-01T20:47:43.899Z,15.08
2022-11-01T20:49:48.739Z,15.15
2022-11-01T20:51:50.828Z,15.19
2022-11-01T20:53:55.820Z,15.21
2022-11-01T20:55:57.804Z,15.23
2022-11-01T20:58:00.132Z,15.27
2022-11-01T21:00:04.354Z,15.26
2022-11-01T21:02:10.655Z,15.28
2022-11-01T21:04:13.066Z,15.30
2022-11-01T21:06:19.236Z,15.30
2022-11-01T21:08:22.813Z,15.31
2022-11-01T21:10:34.143Z,15.26
2022-11-01T21:12:36.196Z,15.31
2022-11-01T21:14:41.188Z,15.29
2022-11-01T21:16:43.593Z,15.29
2022-11-01T21:18:46.175Z,15.30
2022-11-01T21:20:49.461Z,15.29
2022-11-01T21:22:59.196Z,15.25
2022-11-01T21:25:01.184Z,15.22
2022-11-01T21:27:06.196Z,15.13
2022-11-01T21:29:34.249Z,15.11
2022-11-01T21:31:39.648Z,15.13
2022-11-01T21:33:52.533Z,15.05
2022-11-01T21:35:57.183Z,15.10
2022-11-01T21:37:59.905Z,15.07
2022-11-01T21:40:06.619Z,15.06
2022-11-01T21:42:33.335Z,15.01
2022-11-01T21:44:43.221Z,15.04
2022-11-01T21:46:54.170Z,15.09
2022-11-01T21:48:59.742Z,15.08
2022-11-01T21:54:34.020Z,15.04
2022-11-01T21:56:38.876Z,15.05
2022-11-01T21:58:40.935Z,15.01
2022-11-01T22:00:43.092Z,14.99
2022-11-01T22:02:51.134Z,15.00
2022-11-01T22:04:55.499Z,14.98
2022-11-01T22:07:01.812Z,14.97
2022-11-01T22:09:04.570Z,14.92
2022-11-01T22:11:06.491Z,14.90
2022-11-01T22:13:08.852Z,14.90
2022-11-01T22:15:11.378Z,14.87
2022-11-01T22:17:13.427Z,14.83
2022-11-01T22:19:15.453Z,14.81
2022-11-01T22:21:17.759Z,14.77
2022-11-01T22:23:20.165Z,14.77
2022-11-01T22:25:22.273Z,14.79
2022-11-01T22:27:24.314Z,14.76
2022-11-01T22:29:26.377Z,14.75
2022-11-01T22:31:30.002Z,14.76
2022-11-01T22:33:34.207Z,14.69
2022-11-01T22:35:36.219Z,14.69
2022-11-01T22:37:38.261Z,14.68
2022-11-01T22:39:41.331Z,14.64
2022-11-01T22:41:43.956Z,14.68
2022-11-01T22:43:47.805Z,14.70
2022-11-01T22:45:53.114Z,14.72
2022-11-01T22:47:58.164Z,14.71
2022-11-01T22:50:03.278Z,14.72
2022-11-01T22:52:29.646Z,14.62
2022-11-01T22:54:39.009Z,14.66
2022-11-01T22:56:40.944Z,14.66
2022-11-01T22:58:42.898Z,14.69
2022-11-01T23:04:38.016Z,14.67
2022-11-01T23:06:42.847Z,14.74
2022-11-01T23:08:44.784Z,14.74
2022-11-01T23:10:50.241Z,14.77
2022-11-01T23:13:27.266Z,14.79
2022-11-01T23:15:33.230Z,14.84
2022-11-01T23:17:38.735Z,14.87
2022-11-01T23:19:40.942Z,14.85
2022-11-01T23:21:45.936Z,14.88
2022-11-01T23:23:48.818Z,14.93
2022-11-01T23:25:51.808Z,14.95
2022-11-01T23:27:54.583Z,14.95
2022-11-01T23:30:01.217Z,14.94
2022-11-01T23:32:03.645Z,14.85
2022-11-01T23:34:07.014Z,14.84
2022-11-01T23:36:27.696Z,14.77
2022-11-01T23:38:41.164Z,14.81
2022-11-01T23:40:43.239Z,14.88
2022-11-01T23:42:46.270Z,14.89
2022-11-01T23:44:52.410Z,14.86
2022-11-01T23:47:00.986Z,14.85
2022-11-01T23:49:13.326Z,14.88
2022-11-01T23:51:21.481Z,14.90
2022-11-01T23:53:32.263Z,14.91
2022-11-01T23:55:38.742Z,14.90
2022-11-01T23:57:44.136Z,14.92
2022-11-01T23:59:54.184Z,14.88
